Pagina principale
METAR-TAF:

METAR-TAF

Aeroporti :

Florești, Moldavia

latitudine: 47-51-45N, longitudine: 028-12-45E, altezza: 101 m

Osservazione

Il bollettino è stato emesso 13 ore e 35 minuti fa, alle 11:30 UTC
Temperature 27°C
Umidità 42%
Pressione 1018 hPa
Visibilità 10 km o più
nessuna nube inferiore a 1500 m e nessun cumulonembo

METAR: LUBM 201130Z /////KT CAVOK 27/13 Q1018

Ora: 04:05 (01:05 UTC)

Previsione

Il bollettino è stato emesso 14 ore e 2 minuti fa, alle 11:03 UTC
Previsione valida dal 20 alle 12 UTC al 20 alle 21 UTC
Vento 14 kt da nord/nord-ovest
Visibilità 10 km o più
nessuna nube inferiore a 1500 m e nessun cumulonembo
Temporaneamente
dal 20 alle 12 UTC al 20 alle 14 UTC
Vento 18 kt da nord/nord-ovest con raffiche fino a 30 kt
Evoluzione graduale
dal 20 alle 16 UTC al 20 alle 18 UTC
Vento 6 kt da nord

TAF: LUBM 201103Z 2012/2021 34014KT CAVOK TEMPO 2012/2014 34018G30KT BECMG 2016/2018 36006KT

Osservazioni e previsioni meteorologiche di più di 4000 aeroporti (messaggi METAR e TAF).

Le stazioni disponibili sono rappresentate dai dischi gialli e rossi sulla carta.

Puntare il mouse per vedere il nome della stazione.

Clicca sopra per visualizzare le osservazioni e previsioni meteorologiche.

Per cambiare la mappa : fare clic sui pulsanti verdi con una croce nera per ingrandire, il pulsante verde con un trattino per diminuire, o sulla freccia verde per le mappe adiacenti.


METAR-TAF: